sensor_id;sensor_type;location;lat;lon;timestamp;temperature;humidity
32965;DHT22;19317;48.226;11.686;2023-02-16T00:01:52;-0.30;99.90
32965;DHT22;19317;48.226;11.686;2023-02-16T00:06:43;-0.20;99.90
32965;DHT22;19317;48.226;11.686;2023-02-16T00:11:34;-0.30;99.90
32965;DHT22;19317;48.226;11.686;2023-02-16T00:16:25;-0.40;99.90
32965;DHT22;19317;48.226;11.686;2023-02-16T00:21:16;-0.60;99.90
32965;DHT22;19317;48.226;11.686;2023-02-16T00:26:15;-0.60;99.90
32965;DHT22;19317;48.226;11.686;2023-02-16T00:31:07;-0.50;99.90
32965;DHT22;19317;48.226;11.686;2023-02-16T00:35:58;-0.40;99.90
32965;DHT22;19317;48.226;11.686;2023-02-16T00:40:48;-0.40;99.90
32965;DHT22;19317;48.226;11.686;2023-02-16T00:45:39;0.00;99.90
32965;DHT22;19317;48.226;11.686;2023-02-16T00:50:32;-0.50;99.90
32965;DHT22;19317;48.226;11.686;2023-02-16T00:55:28;-0.50;99.90
32965;DHT22;19317;48.226;11.686;2023-02-16T01:00:32;-0.40;99.90
32965;DHT22;19317;48.226;11.686;2023-02-16T01:05:23;-0.30;99.90
32965;DHT22;19317;48.226;11.686;2023-02-16T01:10:16;-0.40;99.90
32965;DHT22;19317;48.226;11.686;2023-02-16T01:15:14;-0.30;99.90
32965;DHT22;19317;48.226;11.686;2023-02-16T01:20:14;-0.80;99.90
32965;DHT22;19317;48.226;11.686;2023-02-16T01:25:05;-0.50;99.90
32965;DHT22;19317;48.226;11.686;2023-02-16T01:29:56;-1.20;99.90
32965;DHT22;19317;48.226;11.686;2023-02-16T01:34:46;-1.20;99.90
32965;DHT22;19317;48.226;11.686;2023-02-16T01:39:36;-1.00;99.90
32965;DHT22;19317;48.226;11.686;2023-02-16T01:44:33;-1.30;99.90
32965;DHT22;19317;48.226;11.686;2023-02-16T01:49:26;-1.70;99.90
32965;DHT22;19317;48.226;11.686;2023-02-16T01:54:34;-1.60;99.90
32965;DHT22;19317;48.226;11.686;2023-02-16T02:09:45;-1.40;99.90
32965;DHT22;19317;48.226;11.686;2023-02-16T02:14:38;-1.40;99.90
32965;DHT22;19317;48.226;11.686;2023-02-16T02:19:30;-1.50;99.90
32965;DHT22;19317;48.226;11.686;2023-02-16T02:34:35;-1.10;99.90
32965;DHT22;19317;48.226;11.686;2023-02-16T02:44:54;-1.00;99.90
32965;DHT22;19317;48.226;11.686;2023-02-16T02:49:53;-1.10;99.90
32965;DHT22;19317;48.226;11.686;2023-02-16T02:54:45;-1.00;99.90
32965;DHT22;19317;48.226;11.686;2023-02-16T02:59:39;-1.30;99.90
32965;DHT22;19317;48.226;11.686;2023-02-16T03:04:32;-1.20;99.90
32965;DHT22;19317;48.226;11.686;2023-02-16T03:09:23;-1.40;99.90
32965;DHT22;19317;48.226;11.686;2023-02-16T03:19:16;-1.20;99.90
32965;DHT22;19317;48.226;11.686;2023-02-16T03:24:11;-1.00;99.90
32965;DHT22;19317;48.226;11.686;2023-02-16T03:29:05;-1.00;99.90
32965;DHT22;19317;48.226;11.686;2023-02-16T03:33:57;-1.40;99.90
32965;DHT22;19317;48.226;11.686;2023-02-16T03:38:47;-1.40;99.90
32965;DHT22;19317;48.226;11.686;2023-02-16T03:43:38;-1.60;99.90
32965;DHT22;19317;48.226;11.686;2023-02-16T03:48:28;-1.60;99.90
32965;DHT22;19317;48.226;11.686;2023-02-16T03:53:19;-1.70;99.90
32965;DHT22;19317;48.226;11.686;2023-02-16T03:58:11;-1.50;99.90
32965;DHT22;19317;48.226;11.686;2023-02-16T04:03:03;-1.60;99.90
32965;DHT22;19317;48.226;11.686;2023-02-16T04:07:54;-2.00;99.90
32965;DHT22;19317;48.226;11.686;2023-02-16T04:12:46;-1.70;99.90
32965;DHT22;19317;48.226;11.686;2023-02-16T04:17:36;-1.30;99.90
32965;DHT22;19317;48.226;11.686;2023-02-16T04:22:27;-1.20;99.90
32965;DHT22;19317;48.226;11.686;2023-02-16T04:27:17;-1.30;99.90
32965;DHT22;19317;48.226;11.686;2023-02-16T04:32:08;-1.30;99.90
32965;DHT22;19317;48.226;11.686;2023-02-16T04:36:58;-0.60;99.90
32965;DHT22;19317;48.226;11.686;2023-02-16T04:41:49;-1.20;99.90
32965;DHT22;19317;48.226;11.686;2023-02-16T04:46:39;-1.30;99.90
32965;DHT22;19317;48.226;11.686;2023-02-16T04:51:30;-1.40;99.90
32965;DHT22;19317;48.226;11.686;2023-02-16T04:56:20;-1.70;99.90
32965;DHT22;19317;48.226;11.686;2023-02-16T05:01:21;-1.40;99.90
32965;DHT22;19317;48.226;11.686;2023-02-16T05:06:12;-1.30;99.90
32965;DHT22;19317;48.226;11.686;2023-02-16T05:11:02;-1.40;99.90
32965;DHT22;19317;48.226;11.686;2023-02-16T05:15:53;-1.50;99.90
32965;DHT22;19317;48.226;11.686;2023-02-16T05:20:43;-1.50;99.90
32965;DHT22;19317;48.226;11.686;2023-02-16T05:25:34;-1.50;99.90
32965;DHT22;19317;48.226;11.686;2023-02-16T05:30:24;-1.30;99.90
32965;DHT22;19317;48.226;11.686;2023-02-16T05:35:15;-1.50;99.90
32965;DHT22;19317;48.226;11.686;2023-02-16T05:40:06;-1.50;99.90
32965;DHT22;19317;48.226;11.686;2023-02-16T05:44:56;-1.40;99.90
32965;DHT22;19317;48.226;11.686;2023-02-16T05:49:47;-1.50;99.90
32965;DHT22;19317;48.226;11.686;2023-02-16T05:54:37;-1.30;99.90
32965;DHT22;19317;48.226;11.686;2023-02-16T05:59:28;-1.30;99.90
32965;DHT22;19317;48.226;11.686;2023-02-16T06:04:19;-1.30;99.90
32965;DHT22;19317;48.226;11.686;2023-02-16T06:09:10;-1.30;99.90
32965;DHT22;19317;48.226;11.686;2023-02-16T06:14:12;-1.70;99.90
32965;DHT22;19317;48.226;11.686;2023-02-16T06:19:04;-1.70;99.90
32965;DHT22;19317;48.226;11.686;2023-02-16T06:23:55;-1.80;99.90
32965;DHT22;19317;48.226;11.686;2023-02-16T06:28:45;-1.90;99.90
32965;DHT22;19317;48.226;11.686;2023-02-16T06:33:36;-1.90;99.90
32965;DHT22;19317;48.226;11.686;2023-02-16T06:38:26;-1.70;99.90
32965;DHT22;19317;48.226;11.686;2023-02-16T06:43:17;-2.10;99.90
32965;DHT22;19317;48.226;11.686;2023-02-16T06:48:07;-2.40;99.90
32965;DHT22;19317;48.226;11.686;2023-02-16T06:52:58;-2.30;99.90
32965;DHT22;19317;48.226;11.686;2023-02-16T06:57:48;-1.80;99.90
32965;DHT22;19317;48.226;11.686;2023-02-16T07:02:39;-1.50;99.90
32965;DHT22;19317;48.226;11.686;2023-02-16T07:07:29;-1.40;99.90
32965;DHT22;19317;48.226;11.686;2023-02-16T07:12:20;-1.40;99.90
32965;DHT22;19317;48.226;11.686;2023-02-16T07:17:10;-1.20;99.90
32965;DHT22;19317;48.226;11.686;2023-02-16T07:22:01;-1.20;99.90
32965;DHT22;19317;48.226;11.686;2023-02-16T07:26:52;-1.40;99.90
32965;DHT22;19317;48.226;11.686;2023-02-16T07:31:42;-1.30;99.90
32965;DHT22;19317;48.226;11.686;2023-02-16T07:36:33;-1.10;99.90
32965;DHT22;19317;48.226;11.686;2023-02-16T07:41:23;-0.90;99.90
32965;DHT22;19317;48.226;11.686;2023-02-16T07:46:14;-0.10;99.90
32965;DHT22;19317;48.226;11.686;2023-02-16T07:51:04;0.10;99.90
32965;DHT22;19317;48.226;11.686;2023-02-16T07:55:55;-0.20;99.90
32965;DHT22;19317;48.226;11.686;2023-02-16T08:00:45;-0.30;99.90
32965;DHT22;19317;48.226;11.686;2023-02-16T08:05:36;-0.40;99.90
32965;DHT22;19317;48.226;11.686;2023-02-16T08:10:26;-0.10;99.90
32965;DHT22;19317;48.226;11.686;2023-02-16T08:15:17;0.10;99.90
32965;DHT22;19317;48.226;11.686;2023-02-16T08:20:07;0.10;99.90
32965;DHT22;19317;48.226;11.686;2023-02-16T08:24:58;0.30;99.90
32965;DHT22;19317;48.226;11.686;2023-02-16T08:29:48;0.10;99.90
32965;DHT22;19317;48.226;11.686;2023-02-16T08:34:39;0.30;99.90
32965;DHT22;19317;48.226;11.686;2023-02-16T08:39:31;0.60;99.90
32965;DHT22;19317;48.226;11.686;2023-02-16T08:44:23;0.90;99.90
32965;DHT22;19317;48.226;11.686;2023-02-16T08:49:15;1.10;99.90
32965;DHT22;19317;48.226;11.686;2023-02-16T08:54:06;1.20;99.90
32965;DHT22;19317;48.226;11.686;2023-02-16T08:58:56;1.40;99.90
32965;DHT22;19317;48.226;11.686;2023-02-16T09:03:47;1.60;99.90
32965;DHT22;19317;48.226;11.686;2023-02-16T09:08:38;1.80;99.90
32965;DHT22;19317;48.226;11.686;2023-02-16T09:13:29;2.00;99.90
32965;DHT22;19317;48.226;11.686;2023-02-16T09:18:20;2.20;99.90
32965;DHT22;19317;48.226;11.686;2023-02-16T09:23:11;2.40;99.90
32965;DHT22;19317;48.226;11.686;2023-02-16T09:28:02;2.60;99.90
32965;DHT22;19317;48.226;11.686;2023-02-16T09:32:52;2.80;99.90
32965;DHT22;19317;48.226;11.686;2023-02-16T09:37:43;2.90;99.90
32965;DHT22;19317;48.226;11.686;2023-02-16T09:43:07;3.10;99.90
32965;DHT22;19317;48.226;11.686;2023-02-16T09:48:01;3.20;99.90
32965;DHT22;19317;48.226;11.686;2023-02-16T09:53:01;3.50;99.90
32965;DHT22;19317;48.226;11.686;2023-02-16T10:08:09;4.40;99.90
32965;DHT22;19317;48.226;11.686;2023-02-16T10:13:24;5.30;99.90
32965;DHT22;19317;48.226;11.686;2023-02-16T10:18:27;5.70;99.90
32965;DHT22;19317;48.226;11.686;2023-02-16T10:23:43;6.20;99.90
32965;DHT22;19317;48.226;11.686;2023-02-16T10:28:51;6.50;99.90
32965;DHT22;19317;48.226;11.686;2023-02-16T10:44:24;7.70;99.90
32965;DHT22;19317;48.226;11.686;2023-02-16T10:49:18;7.80;99.90
32965;DHT22;19317;48.226;11.686;2023-02-16T10:54:17;8.10;99.90
32965;DHT22;19317;48.226;11.686;2023-02-16T10:59:22;8.50;99.90
32965;DHT22;19317;48.226;11.686;2023-02-16T11:04:30;8.70;99.90
32965;DHT22;19317;48.226;11.686;2023-02-16T11:09:27;8.80;99.90
32965;DHT22;19317;48.226;11.686;2023-02-16T11:14:23;8.90;99.90
32965;DHT22;19317;48.226;11.686;2023-02-16T11:19:23;8.90;99.90
32965;DHT22;19317;48.226;11.686;2023-02-16T11:24:32;9.10;99.90
32965;DHT22;19317;48.226;11.686;2023-02-16T11:29:23;9.30;99.90
32965;DHT22;19317;48.226;11.686;2023-02-16T11:44:03;9.90;98.00
32965;DHT22;19317;48.226;11.686;2023-02-16T11:48:54;9.90;97.90
32965;DHT22;19317;48.226;11.686;2023-02-16T11:53:44;10.10;97.60
32965;DHT22;19317;48.226;11.686;2023-02-16T12:04:19;10.30;96.50
32965;DHT22;19317;48.226;11.686;2023-02-16T12:34:21;11.40;91.20
32965;DHT22;19317;48.226;11.686;2023-02-16T12:44:34;11.80;90.80
32965;DHT22;19317;48.226;11.686;2023-02-16T12:49:36;11.70;89.50
32965;DHT22;19317;48.226;11.686;2023-02-16T12:54:53;11.80;88.60
32965;DHT22;19317;48.226;11.686;2023-02-16T13:00:30;12.00;87.80
32965;DHT22;19317;48.226;11.686;2023-02-16T13:05:28;11.90;85.90
32965;DHT22;19317;48.226;11.686;2023-02-16T13:10:30;12.10;84.90
32965;DHT22;19317;48.226;11.686;2023-02-16T13:15:32;12.20;81.80
32965;DHT22;19317;48.226;11.686;2023-02-16T13:20:23;12.20;80.20
32965;DHT22;19317;48.226;11.686;2023-02-16T13:25:50;12.30;79.50
32965;DHT22;19317;48.226;11.686;2023-02-16T13:30:55;12.40;80.20
32965;DHT22;19317;48.226;11.686;2023-02-16T13:36:02;12.50;78.70
32965;DHT22;19317;48.226;11.686;2023-02-16T13:45:56;12.70;79.80
32965;DHT22;19317;48.226;11.686;2023-02-16T13:50:55;12.80;80.30
32965;DHT22;19317;48.226;11.686;2023-02-16T13:55:46;12.90;80.70
32965;DHT22;19317;48.226;11.686;2023-02-16T14:00:39;12.90;79.90
32965;DHT22;19317;48.226;11.686;2023-02-16T14:05:34;13.20;81.40
32965;DHT22;19317;48.226;11.686;2023-02-16T14:15:49;13.00;81.50
32965;DHT22;19317;48.226;11.686;2023-02-16T14:20:40;13.10;78.70
32965;DHT22;19317;48.226;11.686;2023-02-16T14:25:33;13.30;78.70
32965;DHT22;19317;48.226;11.686;2023-02-16T14:35:33;13.40;78.90
32965;DHT22;19317;48.226;11.686;2023-02-16T14:45:57;13.70;76.60
32965;DHT22;19317;48.226;11.686;2023-02-16T14:56:10;13.40;75.30
32965;DHT22;19317;48.226;11.686;2023-02-16T15:01:11;13.50;75.00
32965;DHT22;19317;48.226;11.686;2023-02-16T15:06:02;13.60;74.80
32965;DHT22;19317;48.226;11.686;2023-02-16T15:10:54;13.70;75.00
32965;DHT22;19317;48.226;11.686;2023-02-16T15:15:50;13.40;74.40
32965;DHT22;19317;48.226;11.686;2023-02-16T15:20:43;13.40;75.10
32965;DHT22;19317;48.226;11.686;2023-02-16T15:25:36;13.50;74.20
32965;DHT22;19317;48.226;11.686;2023-02-16T15:30:29;13.50;73.40
32965;DHT22;19317;48.226;11.686;2023-02-16T15:35:27;13.30;75.00
32965;DHT22;19317;48.226;11.686;2023-02-16T15:40:25;13.20;75.70
32965;DHT22;19317;48.226;11.686;2023-02-16T15:45:25;13.30;77.20
32965;DHT22;19317;48.226;11.686;2023-02-16T15:50:22;13.30;77.80
32965;DHT22;19317;48.226;11.686;2023-02-16T15:55:12;13.00;79.50
32965;DHT22;19317;48.226;11.686;2023-02-16T16:00:14;12.80;81.00
32965;DHT22;19317;48.226;11.686;2023-02-16T16:05:08;12.70;81.70
32965;DHT22;19317;48.226;11.686;2023-02-16T16:10:19;12.50;83.20
32965;DHT22;19317;48.226;11.686;2023-02-16T16:15:18;12.30;85.00
32965;DHT22;19317;48.226;11.686;2023-02-16T16:20:29;12.10;86.40
32965;DHT22;19317;48.226;11.686;2023-02-16T16:25:42;12.00;87.50
32965;DHT22;19317;48.226;11.686;2023-02-16T16:30:35;11.90;88.50
32965;DHT22;19317;48.226;11.686;2023-02-16T16:35:38;11.70;89.60
32965;DHT22;19317;48.226;11.686;2023-02-16T16:40:34;11.60;90.20
32965;DHT22;19317;48.226;11.686;2023-02-16T16:45:37;11.40;90.50
32965;DHT22;19317;48.226;11.686;2023-02-16T16:50:34;11.30;91.00
32965;DHT22;19317;48.226;11.686;2023-02-16T16:55:31;11.20;91.10
32965;DHT22;19317;48.226;11.686;2023-02-16T17:00:24;11.10;91.40
32965;DHT22;19317;48.226;11.686;2023-02-16T17:05:14;11.20;91.80
32965;DHT22;19317;48.226;11.686;2023-02-16T17:10:05;11.10;92.10
32965;DHT22;19317;48.226;11.686;2023-02-16T17:14:56;11.00;92.50
32965;DHT22;19317;48.226;11.686;2023-02-16T17:19:46;10.90;92.50
32965;DHT22;19317;48.226;11.686;2023-02-16T17:24:37;10.90;92.80
32965;DHT22;19317;48.226;11.686;2023-02-16T17:29:27;10.80;92.80
32965;DHT22;19317;48.226;11.686;2023-02-16T17:34:18;10.30;93.60
32965;DHT22;19317;48.226;11.686;2023-02-16T17:39:08;10.30;93.30
32965;DHT22;19317;48.226;11.686;2023-02-16T17:43:59;10.40;93.30
32965;DHT22;19317;48.226;11.686;2023-02-16T17:48:51;10.30;92.40
32965;DHT22;19317;48.226;11.686;2023-02-16T17:53:42;10.30;91.80
32965;DHT22;19317;48.226;11.686;2023-02-16T17:58:33;10.30;91.40
32965;DHT22;19317;48.226;11.686;2023-02-16T18:03:23;10.10;91.70
32965;DHT22;19317;48.226;11.686;2023-02-16T18:08:14;10.20;91.30
32965;DHT22;19317;48.226;11.686;2023-02-16T18:13:05;10.10;91.10
32965;DHT22;19317;48.226;11.686;2023-02-16T18:17:56;10.10;91.30
32965;DHT22;19317;48.226;11.686;2023-02-16T18:22:46;10.00;91.60
32965;DHT22;19317;48.226;11.686;2023-02-16T18:27:37;10.00;91.70
32965;DHT22;19317;48.226;11.686;2023-02-16T18:32:27;9.90;91.50
32965;DHT22;19317;48.226;11.686;2023-02-16T18:37:18;10.00;91.70
32965;DHT22;19317;48.226;11.686;2023-02-16T18:42:09;10.00;91.30
32965;DHT22;19317;48.226;11.686;2023-02-16T18:46:59;9.90;91.50
32965;DHT22;19317;48.226;11.686;2023-02-16T18:51:50;9.80;91.70
32965;DHT22;19317;48.226;11.686;2023-02-16T18:56:40;10.00;92.10
32965;DHT22;19317;48.226;11.686;2023-02-16T19:01:31;9.90;92.30
32965;DHT22;19317;48.226;11.686;2023-02-16T19:06:22;9.90;91.50
32965;DHT22;19317;48.226;11.686;2023-02-16T19:11:12;9.90;91.70
32965;DHT22;19317;48.226;11.686;2023-02-16T19:16:03;9.80;91.80
32965;DHT22;19317;48.226;11.686;2023-02-16T19:20:54;9.80;91.20
32965;DHT22;19317;48.226;11.686;2023-02-16T19:25:44;9.70;91.60
32965;DHT22;19317;48.226;11.686;2023-02-16T19:30:35;9.70;91.90
32965;DHT22;19317;48.226;11.686;2023-02-16T19:35:25;9.70;92.30
32965;DHT22;19317;48.226;11.686;2023-02-16T19:40:16;9.50;91.90
32965;DHT22;19317;48.226;11.686;2023-02-16T19:45:07;9.50;92.20
32965;DHT22;19317;48.226;11.686;2023-02-16T19:49:57;9.60;92.60
32965;DHT22;19317;48.226;11.686;2023-02-16T19:54:48;9.50;92.80
32965;DHT22;19317;48.226;11.686;2023-02-16T19:59:38;9.50;92.40
32965;DHT22;19317;48.226;11.686;2023-02-16T20:04:28;9.40;92.40
32965;DHT22;19317;48.226;11.686;2023-02-16T20:09:20;9.50;92.50
32965;DHT22;19317;48.226;11.686;2023-02-16T20:14:11;9.40;92.40
32965;DHT22;19317;48.226;11.686;2023-02-16T20:19:03;9.30;93.00
32965;DHT22;19317;48.226;11.686;2023-02-16T20:23:56;9.40;92.90
32965;DHT22;19317;48.226;11.686;2023-02-16T20:28:47;9.30;92.60
32965;DHT22;19317;48.226;11.686;2023-02-16T20:33:38;9.30;92.80
32965;DHT22;19317;48.226;11.686;2023-02-16T20:38:28;9.30;92.80
32965;DHT22;19317;48.226;11.686;2023-02-16T20:43:19;9.40;94.40
32965;DHT22;19317;48.226;11.686;2023-02-16T20:48:09;9.40;94.20
32965;DHT22;19317;48.226;11.686;2023-02-16T20:53:00;9.50;93.90
32965;DHT22;19317;48.226;11.686;2023-02-16T20:57:50;9.40;93.50
32965;DHT22;19317;48.226;11.686;2023-02-16T21:02:41;9.30;93.80
32965;DHT22;19317;48.226;11.686;2023-02-16T21:07:32;9.30;93.80
32965;DHT22;19317;48.226;11.686;2023-02-16T21:12:22;9.30;94.00
32965;DHT22;19317;48.226;11.686;2023-02-16T21:17:13;9.30;94.20
32965;DHT22;19317;48.226;11.686;2023-02-16T21:22:03;9.30;94.30
32965;DHT22;19317;48.226;11.686;2023-02-16T21:26:53;9.30;94.60
32965;DHT22;19317;48.226;11.686;2023-02-16T21:31:44;9.30;94.60
32965;DHT22;19317;48.226;11.686;2023-02-16T21:36:34;9.40;95.10
32965;DHT22;19317;48.226;11.686;2023-02-16T21:41:27;9.30;95.00
32965;DHT22;19317;48.226;11.686;2023-02-16T21:46:17;9.30;95.10
32965;DHT22;19317;48.226;11.686;2023-02-16T21:51:08;9.30;95.20
32965;DHT22;19317;48.226;11.686;2023-02-16T21:56:06;9.30;95.20
32965;DHT22;19317;48.226;11.686;2023-02-16T22:00:57;9.30;95.30
32965;DHT22;19317;48.226;11.686;2023-02-16T22:05:48;9.30;95.50
32965;DHT22;19317;48.226;11.686;2023-02-16T22:10:38;9.30;95.40
32965;DHT22;19317;48.226;11.686;2023-02-16T22:15:29;9.30;95.40
32965;DHT22;19317;48.226;11.686;2023-02-16T22:20:20;9.30;95.50
32965;DHT22;19317;48.226;11.686;2023-02-16T22:25:12;9.30;95.40
32965;DHT22;19317;48.226;11.686;2023-02-16T22:30:04;9.30;95.60
32965;DHT22;19317;48.226;11.686;2023-02-16T22:34:55;9.30;95.80
32965;DHT22;19317;48.226;11.686;2023-02-16T22:39:45;9.30;95.70
32965;DHT22;19317;48.226;11.686;2023-02-16T22:44:35;9.30;95.50
32965;DHT22;19317;48.226;11.686;2023-02-16T22:49:26;9.30;95.60
32965;DHT22;19317;48.226;11.686;2023-02-16T22:54:17;9.30;95.70
32965;DHT22;19317;48.226;11.686;2023-02-16T22:59:09;9.30;95.80
32965;DHT22;19317;48.226;11.686;2023-02-16T23:04:00;9.20;95.90
32965;DHT22;19317;48.226;11.686;2023-02-16T23:08:52;9.20;95.80
32965;DHT22;19317;48.226;11.686;2023-02-16T23:13:43;9.20;95.80
32965;DHT22;19317;48.226;11.686;2023-02-16T23:18:34;9.30;95.60
32965;DHT22;19317;48.226;11.686;2023-02-16T23:23:25;9.30;95.50
32965;DHT22;19317;48.226;11.686;2023-02-16T23:28:15;9.30;95.50
32965;DHT22;19317;48.226;11.686;2023-02-16T23:33:05;9.30;95.30
32965;DHT22;19317;48.226;11.686;2023-02-16T23:37:56;9.40;95.00
32965;DHT22;19317;48.226;11.686;2023-02-16T23:42:46;9.40;94.90
32965;DHT22;19317;48.226;11.686;2023-02-16T23:47:37;9.50;94.90
32965;DHT22;19317;48.226;11.686;2023-02-16T23:52:27;9.50;95.00
32965;DHT22;19317;48.226;11.686;2023-02-16T23:57:18;9.50;95.00
